createdAt,value
2022-09-03T00:04:23.630Z,1.48
2022-09-03T00:09:34.234Z,1.38
2022-09-03T00:14:52.716Z,1.23
2022-09-03T00:20:00.288Z,1.35
2022-09-03T00:25:07.330Z,1.60
2022-09-03T00:30:14.607Z,1.45
2022-09-03T00:35:37.734Z,1.67
2022-09-03T00:41:08.631Z,2.35
2022-09-03T00:46:23.627Z,3.33
2022-09-03T00:51:33.276Z,2.00
2022-09-03T00:56:52.415Z,2.15
2022-09-03T01:02:01.171Z,2.25
2022-09-03T01:07:18.495Z,1.98
2022-09-03T01:12:25.941Z,2.15
2022-09-03T01:18:00.102Z,1.80
2022-09-03T01:23:20.503Z,1.80
2022-09-03T01:28:21.916Z,2.13
2022-09-03T01:33:46.300Z,2.13
2022-09-03T01:38:56.222Z,1.88
2022-09-03T01:44:21.612Z,1.93
2022-09-03T01:49:41.353Z,2.40
2022-09-03T01:54:50.481Z,2.07
2022-09-03T01:59:54.882Z,1.88
2022-09-03T02:05:14.265Z,2.28
2022-09-03T02:10:30.099Z,2.35
2022-09-03T02:15:34.659Z,2.30
2022-09-03T02:20:37.777Z,2.60
2022-09-03T02:25:44.736Z,2.35
2022-09-03T02:30:46.678Z,2.53
2022-09-03T02:35:48.845Z,1.95
2022-09-03T02:40:50.265Z,2.42
2022-09-03T02:45:57.017Z,2.03
2022-09-03T02:50:59.106Z,2.22
2022-09-03T02:56:01.431Z,1.80
2022-09-03T03:01:02.946Z,2.10
2022-09-03T03:06:07.102Z,2.10
2022-09-03T03:11:08.534Z,2.65
2022-09-03T03:16:10.305Z,2.40
2022-09-03T03:21:15.000Z,2.00
2022-09-03T03:26:19.085Z,2.30
2022-09-03T03:31:22.628Z,2.47
2022-09-03T03:36:26.519Z,2.35
2022-09-03T03:41:33.830Z,1.92
2022-09-03T03:46:37.514Z,2.20
2022-09-03T03:51:39.232Z,2.08
2022-09-03T03:56:40.833Z,2.50
2022-09-03T04:01:42.334Z,2.65
2022-09-03T04:06:43.924Z,2.88
2022-09-03T04:11:45.371Z,2.47
2022-09-03T04:16:47.210Z,2.50
2022-09-03T04:21:48.719Z,2.03
2022-09-03T04:26:54.071Z,2.08
2022-09-03T04:32:14.006Z,2.42
2022-09-03T04:37:16.494Z,2.10
2022-09-03T04:42:18.005Z,2.78
2022-09-03T04:47:19.566Z,2.35
2022-09-03T04:52:21.354Z,2.60
2022-09-03T04:57:23.209Z,2.80
2022-09-03T05:02:24.735Z,2.70
2022-09-03T05:07:28.448Z,2.78
2022-09-03T05:12:31.719Z,2.78
2022-09-03T05:17:37.617Z,2.65
2022-09-03T05:22:39.288Z,2.30
2022-09-03T05:27:40.748Z,2.13
2022-09-03T05:32:42.552Z,2.33
2022-09-03T05:37:44.576Z,2.30
2022-09-03T05:42:46.075Z,1.83
2022-09-03T05:47:47.557Z,1.90
2022-09-03T05:52:49.319Z,2.47
2022-09-03T05:57:53.959Z,2.40
2022-09-03T06:02:55.547Z,2.90
2022-09-03T06:07:57.130Z,2.30
2022-09-03T06:13:02.965Z,2.88
2022-09-03T06:18:05.056Z,2.20
2022-09-03T06:23:06.551Z,3.10
2022-09-03T06:28:09.008Z,2.63
2022-09-03T06:33:11.150Z,2.78
2022-09-03T06:38:12.795Z,2.75
2022-09-03T06:43:14.278Z,2.70
2022-09-03T06:48:15.986Z,2.47
2022-09-03T06:53:17.486Z,2.95
2022-09-03T06:58:18.958Z,2.30
2022-09-03T07:03:21.397Z,2.70
2022-09-03T07:08:22.936Z,2.70
2022-09-03T07:13:25.073Z,2.47
2022-09-03T07:18:26.614Z,2.83
2022-09-03T07:23:29.400Z,3.00
2022-09-03T07:28:34.808Z,3.33
2022-09-03T07:33:36.235Z,2.20
2022-09-03T07:38:38.028Z,3.47
2022-09-03T07:43:49.778Z,3.80
2022-09-03T07:48:53.238Z,3.67
2022-09-03T07:53:57.752Z,3.30
2022-09-03T07:58:59.665Z,3.25
2022-09-03T08:04:02.636Z,3.83
2022-09-03T08:09:07.205Z,2.85
2022-09-03T08:14:13.821Z,3.30
2022-09-03T08:19:18.388Z,3.05
2022-09-03T08:24:22.179Z,3.03
2022-09-03T08:29:23.668Z,3.85
2022-09-03T08:34:25.195Z,3.20
2022-09-03T08:39:26.862Z,3.78
2022-09-03T08:44:29.617Z,2.75
2022-09-03T08:50:02.476Z,2.47
2022-09-03T08:55:25.901Z,2.90
2022-09-03T09:00:49.195Z,4.25
2022-09-03T09:06:23.969Z,3.20
2022-09-03T09:11:28.352Z,2.15
2022-09-03T09:16:42.851Z,2.15
2022-09-03T09:21:52.981Z,2.45
2022-09-03T09:32:01.534Z,2.00
2022-09-03T09:37:07.805Z,2.90
2022-09-03T09:42:12.044Z,3.67
2022-09-03T09:47:21.344Z,2.30
2022-09-03T09:52:26.007Z,2.53
2022-09-03T09:57:27.515Z,2.10
2022-09-03T10:02:29.354Z,2.00
2022-09-03T10:07:32.981Z,2.05
2022-09-03T10:12:43.455Z,2.33
2022-09-03T10:18:03.626Z,2.45
2022-09-03T10:23:04.999Z,1.67
2022-09-03T10:28:13.320Z,2.20
2022-09-03T10:33:29.797Z,2.58
2022-09-03T10:38:34.581Z,2.10
2022-09-03T10:43:39.137Z,2.20
2022-09-03T10:49:09.002Z,2.92
2022-09-03T10:54:32.553Z,2.20
2022-09-03T10:59:46.301Z,2.30
2022-09-03T11:05:03.060Z,2.40
2022-09-03T11:10:11.695Z,1.63
2022-09-03T11:15:42.576Z,2.10
2022-09-03T11:20:44.874Z,2.10
2022-09-03T11:25:59.336Z,2.05
2022-09-03T11:31:17.613Z,2.22
2022-09-03T11:36:35.406Z,1.83
2022-09-03T11:41:37.628Z,2.03
2022-09-03T11:46:40.508Z,2.00
2022-09-03T11:51:44.033Z,1.60
2022-09-03T11:56:47.888Z,1.92
2022-09-03T12:01:58.390Z,1.80
2022-09-03T12:07:08.809Z,1.40
2022-09-03T12:12:28.931Z,1.50
2022-09-03T12:17:40.193Z,1.52
2022-09-03T12:22:42.457Z,1.23
2022-09-03T12:27:46.408Z,1.17
2022-09-03T12:32:48.155Z,1.60
2022-09-03T12:38:09.891Z,1.77
2022-09-03T12:48:39.475Z,1.80
2022-09-03T12:53:42.168Z,2.30
2022-09-03T12:58:58.354Z,2.03
2022-09-03T13:04:10.375Z,1.85
2022-09-03T13:09:14.340Z,1.70
2022-09-03T13:14:17.628Z,0.93
2022-09-03T13:19:26.746Z,0.80
2022-09-03T13:25:02.833Z,0.70
2022-09-03T13:30:21.018Z,0.45
2022-09-03T13:35:48.234Z,0.50
2022-09-03T13:40:59.803Z,0.50
2022-09-03T13:46:17.335Z,0.45
2022-09-03T13:51:31.971Z,0.50
2022-09-03T13:56:48.725Z,0.50
2022-09-03T14:02:32.252Z,0.32
2022-09-03T14:08:08.257Z,0.38
2022-09-03T14:13:20.670Z,0.45
2022-09-03T14:18:50.833Z,0.50
2022-09-03T14:29:11.983Z,0.25
2022-09-03T14:34:16.218Z,0.65
2022-09-03T14:39:28.410Z,0.50
2022-09-03T14:44:44.780Z,0.30
2022-09-03T14:49:49.435Z,0.43
2022-09-03T14:55:05.842Z,0.40
2022-09-03T15:00:33.579Z,0.57
2022-09-03T15:05:58.291Z,0.60
2022-09-03T15:11:03.136Z,0.50
2022-09-03T15:16:25.674Z,0.50
2022-09-03T15:21:55.226Z,0.40
2022-09-03T15:27:10.399Z,0.50
2022-09-03T15:32:22.670Z,0.30
2022-09-03T15:37:35.213Z,0.50
2022-09-03T15:42:38.667Z,0.60
2022-09-03T15:47:51.357Z,1.23
2022-09-03T15:53:05.066Z,0.30
2022-09-03T15:58:26.328Z,0.40
2022-09-03T16:04:16.877Z,0.30
2022-09-03T16:09:18.379Z,0.63
2022-09-03T16:14:46.481Z,0.40
2022-09-03T16:19:57.020Z,0.50
2022-09-03T16:25:20.228Z,0.40
2022-09-03T16:30:40.992Z,0.38
2022-09-03T16:35:59.281Z,0.35
2022-09-03T16:41:30.408Z,0.43
2022-09-03T16:47:01.530Z,0.43
2022-09-03T16:52:18.974Z,0.50
2022-09-03T16:57:46.790Z,0.43
2022-09-03T17:03:07.229Z,0.40
2022-09-03T17:08:29.058Z,0.50
2022-09-03T17:14:00.033Z,0.70
2022-09-03T17:19:32.707Z,0.50
2022-09-03T17:24:38.233Z,0.30
2022-09-03T17:30:10.559Z,0.30
2022-09-03T17:35:19.387Z,0.32
2022-09-03T17:40:46.512Z,0.40
2022-09-03T17:46:22.520Z,0.32
2022-09-03T17:51:39.312Z,0.43
2022-09-03T17:57:05.010Z,0.75
2022-09-03T18:02:24.664Z,0.30
2022-09-03T18:07:43.469Z,0.40
2022-09-03T18:12:59.850Z,0.40
2022-09-03T18:18:18.926Z,0.80
2022-09-03T18:23:48.442Z,0.52
2022-09-03T18:29:21.966Z,0.40
2022-09-03T18:34:50.458Z,0.40
2022-09-03T18:40:10.314Z,0.50
2022-09-03T18:51:52.576Z,0.68
2022-09-03T18:57:13.017Z,0.70
2022-09-03T19:02:48.158Z,0.55
2022-09-03T19:08:24.933Z,0.55
2022-09-03T19:13:50.984Z,0.98
2022-09-03T19:19:31.789Z,0.85
2022-09-03T19:24:52.222Z,1.17
2022-09-03T19:30:21.711Z,1.40
2022-09-03T19:35:49.088Z,1.00
2022-09-03T19:41:41.873Z,0.88
2022-09-03T19:47:08.677Z,1.00
2022-09-03T19:52:51.066Z,0.93
2022-09-03T19:58:41.557Z,0.88
2022-09-03T20:03:59.346Z,0.90
2022-09-03T20:09:27.403Z,1.00
2022-09-03T20:14:33.210Z,0.57
2022-09-03T20:19:45.470Z,0.52
2022-09-03T20:24:58.624Z,0.60
2022-09-03T20:30:15.751Z,0.80
2022-09-03T20:35:40.075Z,0.70
2022-09-03T20:40:46.805Z,0.75
2022-09-03T20:46:15.222Z,1.10
2022-09-03T20:51:21.812Z,1.27
2022-09-03T20:57:02.103Z,1.17
2022-09-03T21:02:32.006Z,0.93
2022-09-03T21:08:12.465Z,1.30
2022-09-03T21:13:51.738Z,1.30
2022-09-03T21:19:11.923Z,0.98
2022-09-03T21:24:42.937Z,0.90
2022-09-03T21:29:59.618Z,1.60
2022-09-03T21:35:28.335Z,2.58
2022-09-03T21:40:33.434Z,3.13
2022-09-03T21:45:50.277Z,2.53
2022-09-03T21:51:00.190Z,1.65
2022-09-03T21:56:30.720Z,1.03
2022-09-03T22:01:59.183Z,0.95
2022-09-03T22:07:05.851Z,1.25
2022-09-03T22:12:54.090Z,1.17
2022-09-03T22:18:08.368Z,1.42
2022-09-03T22:23:21.075Z,1.33
2022-09-03T22:28:36.884Z,1.60
2022-09-03T22:33:56.398Z,1.73
2022-09-03T22:39:07.720Z,1.85
2022-09-03T22:44:14.862Z,1.90
2022-09-03T22:49:31.678Z,1.85
2022-09-03T22:54:43.897Z,1.55
2022-09-03T22:59:59.618Z,1.30
2022-09-03T23:05:32.794Z,1.08
2022-09-03T23:10:36.438Z,1.00
2022-09-03T23:15:41.924Z,1.02
2022-09-03T23:20:59.379Z,1.20
2022-09-03T23:26:22.278Z,0.90
2022-09-03T23:31:26.816Z,1.00
2022-09-03T23:36:54.981Z,1.05
2022-09-03T23:42:29.934Z,1.20
2022-09-03T23:48:22.083Z,1.13
2022-09-03T23:53:52.897Z,0.90
